createdAt,value
2023-06-11T00:02:07.786Z,99201.31
2023-06-11T00:04:36.922Z,99201.08
2023-06-11T00:07:06.708Z,99204.20
2023-06-11T00:09:35.095Z,99203.67
2023-06-11T00:12:03.715Z,99205.53
2023-06-11T00:14:32.079Z,99206.07
2023-06-11T00:17:00.700Z,99204.91
2023-06-11T00:19:30.519Z,99204.03
2023-06-11T00:22:00.332Z,99201.82
2023-06-11T00:24:28.754Z,99203.88
2023-06-11T00:26:57.047Z,99204.23
2023-06-11T00:29:25.500Z,99202.61
2023-06-11T00:31:53.972Z,99203.73
2023-06-11T00:34:22.429Z,99206.08
2023-06-11T00:36:50.972Z,99206.79
2023-06-11T00:39:19.966Z,99206.27
2023-06-11T00:41:49.973Z,99206.75
2023-06-11T00:44:22.951Z,99205.88
2023-06-11T00:46:54.048Z,99203.66
2023-06-11T00:49:24.983Z,99205.92
2023-06-11T00:51:53.922Z,99203.65
2023-06-11T00:54:22.455Z,99205.81
2023-06-11T00:56:52.534Z,99207.89
2023-06-11T00:59:21.488Z,99205.48
2023-06-11T01:02:06.331Z,99206.14
2023-06-11T01:04:36.590Z,99207.33
2023-06-11T01:07:08.283Z,99209.39
2023-06-11T01:09:38.276Z,99211.06
2023-06-11T01:12:09.832Z,99206.25
2023-06-11T01:14:41.121Z,99202.72
2023-06-11T01:17:16.895Z,99204.38
2023-06-11T01:20:11.012Z,99205.98
2023-06-11T01:23:17.913Z,99207.55
2023-06-11T01:26:17.909Z,99210.13
2023-06-11T01:28:50.673Z,99218.38
2023-06-11T01:31:20.076Z,99216.66
2023-06-11T01:33:49.229Z,99216.16
2023-06-11T01:36:22.590Z,99215.20
2023-06-11T01:38:52.396Z,99212.50
2023-06-11T01:41:34.913Z,99214.08
2023-06-11T01:44:04.591Z,99216.09
2023-06-11T01:46:33.477Z,99216.38
2023-06-11T01:49:02.064Z,99214.95
2023-06-11T01:51:30.824Z,99214.02
2023-06-11T01:53:59.132Z,99217.17
2023-06-11T01:56:28.183Z,99217.80
2023-06-11T01:58:59.314Z,99217.79
2023-06-11T02:01:30.392Z,99221.66
2023-06-11T02:03:58.792Z,99221.45
2023-06-11T02:06:27.224Z,99220.52
2023-06-11T02:08:55.766Z,99220.21
2023-06-11T02:11:23.920Z,99221.10
2023-06-11T02:13:52.854Z,99221.29
2023-06-11T02:16:21.273Z,99221.86
2023-06-11T02:18:49.548Z,99224.27
2023-06-11T02:21:18.050Z,99228.63
2023-06-11T02:23:46.436Z,99228.86
2023-06-11T02:26:14.863Z,99228.59
2023-06-11T02:28:43.208Z,99230.15
2023-06-11T02:31:11.772Z,99229.73
2023-06-11T02:33:40.145Z,99232.06
2023-06-11T02:36:11.239Z,99231.98
2023-06-11T02:38:39.607Z,99233.83
2023-06-11T02:41:07.890Z,99233.97
2023-06-11T02:43:36.200Z,99237.07
2023-06-11T02:46:04.723Z,99239.09
2023-06-11T02:48:33.138Z,99238.29
2023-06-11T02:51:02.607Z,99238.46
2023-06-11T02:53:30.994Z,99232.92
2023-06-11T02:55:59.406Z,99232.91
2023-06-11T02:58:27.731Z,99236.17
2023-06-11T03:00:56.375Z,99233.95
2023-06-11T03:03:24.762Z,99235.20
2023-06-11T03:05:54.544Z,99238.13
2023-06-11T03:08:22.919Z,99238.66
2023-06-11T03:10:51.431Z,99240.30
2023-06-11T03:13:20.125Z,99243.62
2023-06-11T03:15:49.515Z,99243.02
2023-06-11T03:18:18.078Z,99242.20
2023-06-11T03:20:46.477Z,99243.98
2023-06-11T03:23:15.949Z,99246.27
2023-06-11T03:25:44.872Z,99247.73
2023-06-11T03:28:13.321Z,99247.72
2023-06-11T03:30:41.631Z,99248.91
2023-06-11T03:33:10.181Z,99246.45
2023-06-11T03:35:38.545Z,99249.70
2023-06-11T03:38:14.632Z,99247.95
2023-06-11T03:40:43.208Z,99246.25
2023-06-11T03:43:11.965Z,99244.17
2023-06-11T03:45:41.326Z,99241.33
2023-06-11T03:48:09.828Z,99245.05
2023-06-11T03:50:38.294Z,99249.85
2023-06-11T03:53:06.771Z,99247.96
2023-06-11T03:55:35.183Z,99254.20
2023-06-11T03:58:03.418Z,99254.58
2023-06-11T04:00:33.365Z,99250.77
2023-06-11T04:03:02.298Z,99252.35
2023-06-11T04:05:37.802Z,99249.86
2023-06-11T04:08:07.167Z,99251.20
2023-06-11T04:10:35.599Z,99253.20
2023-06-11T04:13:04.934Z,99252.09
2023-06-11T04:15:33.517Z,99250.36
2023-06-11T04:18:06.677Z,99255.77
2023-06-11T04:20:34.994Z,99255.67
2023-06-11T04:23:03.262Z,99257.86
2023-06-11T04:25:34.868Z,99254.50
2023-06-11T04:28:04.464Z,99255.91
2023-06-11T04:30:34.829Z,99257.36
2023-06-11T04:33:04.414Z,99260.18
2023-06-11T04:35:35.642Z,99263.08
2023-06-11T04:38:06.599Z,99268.25
2023-06-11T04:40:37.581Z,99273.39
2023-06-11T04:43:08.156Z,99272.06
2023-06-11T04:45:37.470Z,99271.55
2023-06-11T04:48:06.276Z,99274.65
2023-06-11T04:50:37.651Z,99279.98
2023-06-11T04:53:07.068Z,99281.75
2023-06-11T04:55:39.798Z,99285.05
2023-06-11T04:58:09.661Z,99286.27
2023-06-11T05:00:38.760Z,99287.64
2023-06-11T05:03:08.220Z,99286.86
2023-06-11T05:05:37.082Z,99288.52
2023-06-11T05:08:06.325Z,99290.52
2023-06-11T05:10:35.180Z,99289.48
2023-06-11T05:13:03.723Z,99291.33
2023-06-11T05:15:33.434Z,99293.84
2023-06-11T05:18:02.027Z,99291.98
2023-06-11T05:20:31.301Z,99294.73
2023-06-11T05:23:00.792Z,99294.83
2023-06-11T05:25:32.697Z,99294.77
2023-06-11T05:28:07.574Z,99294.48
2023-06-11T05:30:37.819Z,99297.27
2023-06-11T05:33:08.307Z,99298.79
2023-06-11T05:35:38.874Z,99302.06
2023-06-11T05:38:10.832Z,99301.98
2023-06-11T05:40:40.502Z,99301.50
2023-06-11T05:43:08.768Z,99298.86
2023-06-11T05:45:37.905Z,99299.56
2023-06-11T05:48:07.477Z,99300.44
2023-06-11T05:50:37.952Z,99301.78
2023-06-11T05:53:06.320Z,99305.48
2023-06-11T05:55:35.153Z,99306.30
2023-06-11T05:58:03.749Z,99309.63
2023-06-11T06:00:37.735Z,99310.04
2023-06-11T06:03:10.403Z,99313.08
2023-06-11T06:05:39.065Z,99313.63
2023-06-11T06:08:07.890Z,99317.64
2023-06-11T06:10:36.508Z,99322.23
2023-06-11T06:13:04.959Z,99326.39
2023-06-11T06:15:33.437Z,99324.02
2023-06-11T06:18:04.144Z,99321.75
2023-06-11T06:20:38.600Z,99323.12
2023-06-11T06:23:06.979Z,99326.96
2023-06-11T06:25:39.820Z,99330.61
2023-06-11T06:28:10.429Z,99336.11
2023-06-11T06:30:41.119Z,99339.46
2023-06-11T06:33:10.234Z,99342.27
2023-06-11T06:35:40.450Z,99341.82
2023-06-11T06:38:09.295Z,99341.27
2023-06-11T06:40:38.042Z,99343.48
2023-06-11T06:43:06.351Z,99344.14
2023-06-11T06:45:36.155Z,99341.83
2023-06-11T06:48:11.211Z,99339.52
2023-06-11T06:50:39.650Z,99339.95
2023-06-11T06:53:08.193Z,99340.40
2023-06-11T06:55:36.738Z,99333.63
2023-06-11T06:58:36.713Z,99332.20
2023-06-11T07:01:05.860Z,99336.29
2023-06-11T07:03:37.800Z,99333.30
2023-06-11T07:06:09.693Z,99331.52
2023-06-11T07:08:42.387Z,99333.92
2023-06-11T07:11:11.169Z,99334.27
2023-06-11T07:13:48.028Z,99333.35
2023-06-11T07:16:16.521Z,99335.73
2023-06-11T07:18:52.966Z,99332.40
2023-06-11T07:21:21.490Z,99332.42
2023-06-11T07:23:49.931Z,99332.61
2023-06-11T07:26:19.433Z,99334.13
2023-06-11T07:28:48.259Z,99334.66
2023-06-11T07:31:16.886Z,99334.69
2023-06-11T07:33:45.684Z,99337.36
2023-06-11T07:36:14.264Z,99337.54
2023-06-11T07:38:45.144Z,99337.24
2023-06-11T07:41:14.432Z,99333.55
2023-06-11T07:43:42.926Z,99332.84
2023-06-11T07:46:16.433Z,99333.89
2023-06-11T07:48:46.180Z,99332.09
2023-06-11T07:51:19.232Z,99334.84
2023-06-11T07:53:50.192Z,99333.21
2023-06-11T07:56:18.581Z,99332.73
2023-06-11T07:58:46.990Z,99331.58
2023-06-11T08:01:15.398Z,99333.52
2023-06-11T08:03:43.845Z,99332.55
2023-06-11T08:06:13.221Z,99339.92
2023-06-11T08:08:41.628Z,99346.80
2023-06-11T08:11:10.183Z,99347.42
2023-06-11T08:13:39.684Z,99343.77
2023-06-11T08:16:11.094Z,99344.62
2023-06-11T08:18:39.568Z,99343.92
2023-06-11T08:21:07.975Z,99345.39
2023-06-11T08:23:39.987Z,99345.27
2023-06-11T08:26:10.794Z,99342.70
2023-06-11T08:28:39.360Z,99347.14
2023-06-11T08:31:07.706Z,99344.73
2023-06-11T08:33:36.172Z,99346.34
2023-06-11T08:36:04.725Z,99342.16
2023-06-11T08:38:33.105Z,99346.00
2023-06-11T08:41:01.598Z,99350.34
2023-06-11T08:43:30.065Z,99349.94
2023-06-11T08:45:58.404Z,99347.44
2023-06-11T08:48:30.226Z,99340.98
2023-06-11T08:51:03.090Z,99342.68
2023-06-11T08:53:32.520Z,99342.84
2023-06-11T08:56:01.114Z,99344.47
2023-06-11T08:58:32.660Z,99346.94
2023-06-11T09:01:14.151Z,99340.45
2023-06-11T09:03:42.499Z,99342.84
2023-06-11T09:06:11.664Z,99349.52
2023-06-11T09:08:41.207Z,99348.42
2023-06-11T09:11:09.515Z,99348.15
2023-06-11T09:13:41.214Z,99347.30
2023-06-11T09:16:15.141Z,99346.91
2023-06-11T09:18:44.358Z,99347.53
2023-06-11T09:21:13.183Z,99344.52
2023-06-11T09:23:41.586Z,99346.40
2023-06-11T09:26:09.939Z,99343.27
2023-06-11T09:28:38.444Z,99342.11
2023-06-11T09:31:06.750Z,99342.39
2023-06-11T09:33:37.735Z,99336.23
2023-06-11T09:36:06.516Z,99333.61
2023-06-11T09:38:37.985Z,99329.07
2023-06-11T09:41:08.195Z,99334.04
2023-06-11T09:43:36.704Z,99331.41
2023-06-11T09:46:07.203Z,99333.00
2023-06-11T09:48:36.466Z,99333.90
2023-06-11T09:51:07.155Z,99332.97
2023-06-11T09:53:36.333Z,99331.91
2023-06-11T09:56:11.467Z,99334.96
2023-06-11T09:58:41.912Z,99335.13
2023-06-11T10:01:12.060Z,99337.44
2023-06-11T10:03:41.179Z,99339.04
2023-06-11T10:06:17.198Z,99343.70
2023-06-11T10:08:50.217Z,99344.17
2023-06-11T10:11:23.292Z,99346.80
2023-06-11T10:14:02.153Z,99344.60
2023-06-11T10:16:33.050Z,99342.71
2023-06-11T10:19:10.678Z,99344.05
2023-06-11T10:21:50.682Z,99346.71
2023-06-11T10:24:23.355Z,99345.73
2023-06-11T10:27:13.817Z,99344.60
2023-06-11T10:29:46.929Z,99342.31
2023-06-11T10:32:24.217Z,99341.52
2023-06-11T10:34:58.624Z,99339.27
2023-06-11T10:37:29.792Z,99337.63
2023-06-11T10:39:58.611Z,99337.96
2023-06-11T10:42:40.018Z,99339.94
2023-06-11T10:45:10.255Z,99339.88
2023-06-11T10:47:55.354Z,99343.95
2023-06-11T10:50:31.871Z,99341.66
2023-06-11T10:53:04.066Z,99340.06
2023-06-11T10:55:34.148Z,99343.64
2023-06-11T10:58:03.531Z,99343.79
2023-06-11T11:00:35.567Z,99342.98
2023-06-11T11:03:05.968Z,99343.17
2023-06-11T11:05:34.625Z,99344.67
2023-06-11T11:08:03.065Z,99339.32
2023-06-11T11:10:31.971Z,99338.60
2023-06-11T11:13:00.388Z,99345.08
2023-06-11T11:15:30.408Z,99346.83
2023-06-11T11:17:59.110Z,99343.40
2023-06-11T11:20:27.628Z,99335.34
2023-06-11T11:22:57.800Z,99327.98
2023-06-11T11:25:31.465Z,99320.27
2023-06-11T11:28:00.199Z,99321.90
2023-06-11T11:30:30.187Z,99326.64
2023-06-11T11:32:58.674Z,99331.03
2023-06-11T11:35:29.735Z,99328.05
2023-06-11T11:37:58.349Z,99326.25
2023-06-11T11:40:33.898Z,99332.11
2023-06-11T11:43:15.008Z,99331.30
2023-06-11T11:45:51.273Z,99327.11
2023-06-11T11:48:35.951Z,99314.78
2023-06-11T11:51:10.501Z,99309.95
2023-06-11T11:53:39.005Z,99309.19
2023-06-11T11:56:07.707Z,99310.27
2023-06-11T11:58:38.667Z,99306.56
2023-06-11T12:01:12.031Z,99305.27
2023-06-11T12:04:00.034Z,99295.06
2023-06-11T12:06:30.571Z,99290.91
2023-06-11T12:08:59.497Z,99291.92
2023-06-11T12:11:31.068Z,99299.63
2023-06-11T12:14:02.292Z,99299.15
2023-06-11T12:16:30.928Z,99293.77
2023-06-11T12:19:10.322Z,99293.63
2023-06-11T12:21:49.920Z,99290.03
2023-06-11T12:24:18.806Z,99290.33
2023-06-11T12:26:49.638Z,99288.81
2023-06-11T12:29:18.947Z,99293.43
2023-06-11T12:31:48.292Z,99293.80
2023-06-11T12:34:17.273Z,99289.54
2023-06-11T12:36:47.997Z,99286.98
2023-06-11T12:39:16.496Z,99292.53
2023-06-11T12:41:46.202Z,99296.98
2023-06-11T12:44:14.820Z,99298.99
2023-06-11T12:46:43.514Z,99291.71
2023-06-11T12:49:14.183Z,99290.14
2023-06-11T12:51:47.034Z,99287.13
2023-06-11T12:54:16.461Z,99286.55
2023-06-11T12:56:47.175Z,99291.13
2023-06-11T12:59:16.482Z,99298.84
2023-06-11T13:01:51.197Z,99297.77
2023-06-11T13:04:25.965Z,99301.11
2023-06-11T13:06:54.567Z,99296.52
2023-06-11T13:09:23.899Z,99289.52
2023-06-11T13:11:54.862Z,99279.13
2023-06-11T13:14:26.127Z,99274.48
2023-06-11T13:16:56.024Z,99275.35
2023-06-11T13:19:25.575Z,99281.20
2023-06-11T13:21:59.412Z,99284.39
2023-06-11T13:24:28.428Z,99282.05
2023-06-11T13:27:01.936Z,99281.23
2023-06-11T13:29:30.556Z,99283.08
2023-06-11T13:32:02.350Z,99277.28
2023-06-11T13:34:32.384Z,99274.05
2023-06-11T13:37:02.310Z,99278.83
2023-06-11T13:39:30.915Z,99277.58
2023-06-11T13:41:59.433Z,99276.98
2023-06-11T13:44:27.977Z,99277.95
2023-06-11T13:46:56.615Z,99274.80
2023-06-11T13:49:27.279Z,99275.84
2023-06-11T13:51:57.028Z,99272.58
2023-06-11T13:54:29.492Z,99279.42
2023-06-11T13:56:58.936Z,99279.53
2023-06-11T13:59:27.874Z,99275.39
2023-06-11T14:02:02.520Z,99279.48
2023-06-11T14:04:31.641Z,99272.90
2023-06-11T14:07:01.999Z,99275.73
2023-06-11T14:09:32.146Z,99274.60
2023-06-11T14:12:00.438Z,99276.92
2023-06-11T14:14:32.596Z,99277.61
2023-06-11T14:17:06.490Z,99275.48
2023-06-11T14:19:42.956Z,99272.52
2023-06-11T14:22:14.574Z,99271.88
2023-06-11T14:24:43.113Z,99276.54
2023-06-11T14:27:11.707Z,99274.14
2023-06-11T14:29:40.319Z,99275.21
2023-06-11T14:32:08.794Z,99271.09
2023-06-11T14:34:38.484Z,99275.66
2023-06-11T14:37:06.955Z,99281.36
2023-06-11T14:39:35.285Z,99282.97
2023-06-11T14:42:06.623Z,99281.70
2023-06-11T14:44:35.551Z,99286.58
2023-06-11T14:47:04.869Z,99288.77
2023-06-11T14:49:33.355Z,99282.76
2023-06-11T14:52:02.095Z,99279.91
2023-06-11T14:54:30.536Z,99283.30
2023-06-11T14:56:59.057Z,99280.44
2023-06-11T14:59:29.547Z,99286.67
2023-06-11T15:01:58.159Z,99293.81
2023-06-11T15:04:26.543Z,99294.19
2023-06-11T15:06:55.032Z,99292.97
2023-06-11T15:09:23.881Z,99293.91
2023-06-11T15:11:52.277Z,99294.72
2023-06-11T15:14:20.636Z,99290.77
2023-06-11T15:16:49.424Z,99292.67
2023-06-11T15:19:17.877Z,99293.95
2023-06-11T15:21:55.194Z,99288.45
2023-06-11T15:24:23.836Z,99289.49
2023-06-11T15:26:52.344Z,99288.14
2023-06-11T15:29:20.731Z,99291.97
2023-06-11T15:31:51.115Z,99288.91
2023-06-11T15:34:21.146Z,99293.94
2023-06-11T15:36:51.618Z,99304.50
2023-06-11T15:39:20.105Z,99310.84
2023-06-11T15:41:48.483Z,99315.48
2023-06-11T15:44:19.944Z,99312.31
2023-06-11T15:46:48.325Z,99312.75
2023-06-11T15:49:16.814Z,99315.79
2023-06-11T15:51:46.385Z,99320.87
2023-06-11T15:54:17.116Z,99320.23
2023-06-11T15:56:47.850Z,99319.14
2023-06-11T15:59:16.526Z,99318.71
2023-06-11T16:01:45.093Z,99322.08
2023-06-11T16:04:14.370Z,99320.22
2023-06-11T16:06:43.024Z,99327.09
2023-06-11T16:09:11.554Z,99330.52
2023-06-11T16:11:40.046Z,99329.98
2023-06-11T16:14:08.585Z,99337.67
2023-06-11T16:16:39.406Z,99336.48
2023-06-11T16:19:07.807Z,99334.98
2023-06-11T16:21:39.121Z,99340.39
2023-06-11T16:24:07.817Z,99342.90
2023-06-11T16:26:36.201Z,99346.89
2023-06-11T16:29:06.559Z,99346.75
2023-06-11T16:31:35.050Z,99344.08
2023-06-11T16:34:03.441Z,99343.34
2023-06-11T16:36:32.006Z,99346.75
2023-06-11T16:39:12.994Z,99353.67
2023-06-11T16:41:49.271Z,99361.20
2023-06-11T16:44:19.602Z,99362.40
2023-06-11T16:46:48.333Z,99363.86
2023-06-11T16:49:17.512Z,99370.86
2023-06-11T16:51:46.058Z,99372.30
2023-06-11T16:54:17.400Z,99371.30
2023-06-11T16:56:47.520Z,99375.30
2023-06-11T16:59:16.154Z,99372.40
2023-06-11T17:01:46.925Z,99374.45
2023-06-11T17:04:15.875Z,99374.86
2023-06-11T17:06:47.418Z,99377.44
2023-06-11T17:09:18.915Z,99375.23
2023-06-11T17:11:47.508Z,99374.02
2023-06-11T17:14:21.206Z,99375.98
2023-06-11T17:16:51.778Z,99379.05
2023-06-11T17:19:25.883Z,99380.67
2023-06-11T17:21:54.681Z,99375.80
2023-06-11T17:24:24.264Z,99377.34
2023-06-11T17:26:53.440Z,99382.59
2023-06-11T17:29:30.786Z,99386.27
2023-06-11T17:32:05.441Z,99393.16
2023-06-11T17:34:39.434Z,99393.42
2023-06-11T17:37:09.251Z,99396.24
2023-06-11T17:39:41.766Z,99397.66
2023-06-11T17:42:14.449Z,99400.33
2023-06-11T17:44:43.266Z,99399.56
2023-06-11T17:47:15.031Z,99402.19
2023-06-11T17:49:46.830Z,99399.98
2023-06-11T17:52:17.589Z,99402.42
2023-06-11T17:54:47.567Z,99404.59
2023-06-11T17:57:16.035Z,99410.98
2023-06-11T17:59:46.861Z,99416.25
2023-06-11T18:02:15.152Z,99418.72
2023-06-11T18:04:43.560Z,99420.18
2023-06-11T18:07:12.073Z,99416.69
2023-06-11T18:09:40.436Z,99417.02
2023-06-11T18:12:09.528Z,99419.86
2023-06-11T18:14:37.933Z,99420.73
2023-06-11T18:17:06.685Z,99421.31
2023-06-11T18:19:35.672Z,99429.04
2023-06-11T18:22:04.186Z,99430.89
2023-06-11T18:24:33.684Z,99430.48
2023-06-11T18:27:03.986Z,99428.85
2023-06-11T18:29:34.646Z,99425.94
2023-06-11T18:32:03.229Z,99426.74
2023-06-11T18:34:32.098Z,99433.66
2023-06-11T18:37:00.466Z,99436.91
2023-06-11T18:39:28.863Z,99440.05
2023-06-11T18:41:57.210Z,99442.15
2023-06-11T18:44:25.757Z,99448.06
2023-06-11T18:47:01.561Z,99447.99
2023-06-11T18:49:30.374Z,99451.36
2023-06-11T18:52:00.405Z,99452.23
2023-06-11T18:54:31.312Z,99459.45
2023-06-11T18:56:59.689Z,99460.73
2023-06-11T18:59:29.131Z,99463.49
2023-06-11T19:01:58.618Z,99467.77
2023-06-11T19:04:26.952Z,99475.54
2023-06-11T19:06:55.302Z,99470.33
2023-06-11T19:09:23.675Z,99471.91
2023-06-11T19:11:52.032Z,99474.27
2023-06-11T19:14:20.394Z,99476.19
2023-06-11T19:16:49.335Z,99478.05
2023-06-11T19:19:18.307Z,99478.23
2023-06-11T19:21:49.796Z,99477.38
2023-06-11T19:24:18.302Z,99478.55
2023-06-11T19:26:49.468Z,99483.59
2023-06-11T19:29:17.851Z,99481.95
2023-06-11T19:31:47.514Z,99486.15
2023-06-11T19:34:19.521Z,99488.16
2023-06-11T19:36:49.636Z,99490.55
2023-06-11T19:39:17.993Z,99492.39
2023-06-11T19:41:46.259Z,99492.64
2023-06-11T19:44:14.758Z,99500.27
2023-06-11T19:46:44.520Z,99502.58
2023-06-11T19:49:13.054Z,99502.98
2023-06-11T19:51:41.523Z,99502.60
2023-06-11T19:54:11.340Z,99502.89
2023-06-11T19:56:39.734Z,99499.42
2023-06-11T19:59:14.193Z,99497.48
2023-06-11T20:01:43.343Z,99499.00
2023-06-11T20:04:11.752Z,99498.63
2023-06-11T20:06:40.035Z,99497.30
2023-06-11T20:09:10.293Z,99497.13
2023-06-11T20:11:38.786Z,99496.89
2023-06-11T20:14:07.087Z,99498.14
2023-06-11T20:16:35.710Z,99501.39
2023-06-11T20:19:04.144Z,99505.18
2023-06-11T20:21:34.501Z,99502.86
2023-06-11T20:24:02.852Z,99502.75
2023-06-11T20:26:31.615Z,99507.54
2023-06-11T20:29:00.735Z,99504.24
2023-06-11T20:31:29.108Z,99509.70
2023-06-11T20:34:00.262Z,99509.84
2023-06-11T20:36:29.809Z,99514.82
2023-06-11T20:38:58.260Z,99513.23
2023-06-11T20:41:27.494Z,99514.09
2023-06-11T20:44:21.915Z,99515.52
2023-06-11T20:46:51.438Z,99516.50
2023-06-11T20:49:19.810Z,99523.57
2023-06-11T20:52:13.558Z,99525.04
2023-06-11T20:54:42.006Z,99525.58
2023-06-11T20:57:10.221Z,99524.50
2023-06-11T20:59:38.372Z,99525.55
2023-06-11T21:02:06.817Z,99522.66
2023-06-11T21:04:38.325Z,99523.02
2023-06-11T21:07:07.119Z,99524.60
2023-06-11T21:09:35.526Z,99524.75
2023-06-11T21:12:04.362Z,99527.27
2023-06-11T21:14:32.783Z,99527.66
2023-06-11T21:17:00.940Z,99529.50
2023-06-11T21:19:29.316Z,99527.70
2023-06-11T21:21:57.654Z,99528.58
2023-06-11T21:24:25.930Z,99526.86
2023-06-11T21:26:54.214Z,99529.59
2023-06-11T21:29:22.639Z,99530.69
2023-06-11T21:31:51.011Z,99533.17
2023-06-11T21:34:19.424Z,99533.83
2023-06-11T21:36:48.934Z,99527.11
2023-06-11T21:39:17.718Z,99528.17
2023-06-11T21:41:45.937Z,99528.13
2023-06-11T21:44:15.179Z,99531.87
2023-06-11T21:46:43.837Z,99529.02
2023-06-11T21:49:12.224Z,99527.40
2023-06-11T21:51:40.545Z,99526.86
2023-06-11T21:54:08.786Z,99528.55
2023-06-11T21:56:37.037Z,99525.68
2023-06-11T21:59:05.415Z,99528.92
2023-06-11T22:01:33.891Z,99526.58
2023-06-11T22:04:02.574Z,99524.85
2023-06-11T22:06:34.526Z,99525.20
2023-06-11T22:09:02.963Z,99524.26
2023-06-11T22:11:31.812Z,99522.75
2023-06-11T22:14:01.974Z,99519.42
2023-06-11T22:16:34.088Z,99517.34
2023-06-11T22:19:04.071Z,99520.63
2023-06-11T22:21:32.443Z,99519.38
2023-06-11T22:24:01.583Z,99521.53
2023-06-11T22:26:30.164Z,99517.27
2023-06-11T22:28:58.486Z,99519.73
2023-06-11T22:31:26.801Z,99525.15
2023-06-11T22:33:55.097Z,99521.62
2023-06-11T22:36:23.387Z,99524.65
2023-06-11T22:38:51.671Z,99526.61
2023-06-11T22:41:20.192Z,99526.55
2023-06-11T22:43:48.498Z,99527.14
2023-06-11T22:46:17.301Z,99522.56
2023-06-11T22:48:46.514Z,99523.48
2023-06-11T22:51:14.894Z,99523.59
2023-06-11T22:53:43.369Z,99521.90
2023-06-11T22:56:12.825Z,99517.44
2023-06-11T22:58:42.241Z,99523.96
2023-06-11T23:01:11.095Z,99520.23
2023-06-11T23:03:39.950Z,99516.52
2023-06-11T23:06:09.850Z,99517.17
2023-06-11T23:08:40.697Z,99515.65
2023-06-11T23:11:09.990Z,99512.73
2023-06-11T23:13:38.277Z,99515.20
2023-06-11T23:16:06.707Z,99515.21
2023-06-11T23:18:35.962Z,99510.46
2023-06-11T23:21:09.480Z,99506.69
2023-06-11T23:23:43.104Z,99505.17
2023-06-11T23:26:14.078Z,99504.25
2023-06-11T23:28:42.486Z,99503.86
2023-06-11T23:31:12.027Z,99503.48
2023-06-11T23:33:40.847Z,99500.70
2023-06-11T23:36:13.918Z,99496.09
2023-06-11T23:38:42.981Z,99495.95
2023-06-11T23:41:12.517Z,99498.25
2023-06-11T23:43:40.879Z,99497.82
2023-06-11T23:46:12.661Z,99497.02
2023-06-11T23:48:41.755Z,99495.38
2023-06-11T23:51:10.555Z,99494.61
2023-06-11T23:53:38.836Z,99499.57
2023-06-11T23:56:07.225Z,99498.48
2023-06-11T23:58:35.635Z,99497.46
